Main page
METAR-TAF:

METAR-TAF

Airports :

Indianapolis, Indiana, United States

Indianapolis International Airport

latitude: 39-43-30N, longitude: 086-16-55W, elevation: 243 m

Current weather observation

The report was made 17 minutes ago, at 22:54 UTC
Wind 9 kt from the Northwest
Temperature 24°C
Humidity 41%
Pressure 1016 hPa
Visibility: 16.1 km
Few clouds at a height of 6000 ft

METAR: KIND 232254Z 31009KT 10SM FEW060 24/10 A3001 RMK AO2 SLP158 T02390100

Time: 19:11 (23:11 UTC)

Forecast

The report was made 2 hours and 55 minutes ago, at 20:16 UTC
Forecast valid from 23 at 20 UTC to 24 at 24 UTC
Wind 11 kt from the Northwest
Visibility: 10 km
Scattered clouds at a height of 6000 ft
From 24 at 0000 UTC
Wind 4 kt from the North
Visibility: 10 km
Clear sky
From 24 at 1400 UTC
Wind 4 kt from the North/Northeast
Visibility: 10 km
Broken clouds at a height of 10000 ft

TAF: KIND 232016Z 2320/2424 32011KT P6SM SCT060 FM240000 36004KT P6SM SKC FM241400 02004KT P6SM BKN100

Weather observations and forecasts of more than 4000 airports (METAR and TAF reports).

The available stations are represented by yellow and red dots on the map.

Hover mouse over dot to see the name of the station.

Then click to see weather observations and forecasts.

To change the map : click on the green buttons with a black cross to zoom in, on the green button with a dash to zoom out, or on the green arrows for adjacent maps.


METAR-TAF: